Архив погоды на Айон Острове

Метеограмма Айон Остров
Среда, 15 Августа
Время местн. Темп Ветер Видим Явления Облачность нижн/средн/верх Атм. давл. Влжн Точка росы ВНГО R Сост. почвы Tg s
Напр Скр Прв ур.ст ур.м изм
09:00 +7.8° Ю-З 5 7 20 км - облачно 765 767 +0.2 75% +3.6° более 2.5 км 0 Влажная (без луж) +1° -
06:00 +4.7° Ю-З 5 7 20 км - облачно 765 767 -0.2 85% +2.4° более 2.5 км - - - -
03:00 +4.6° Ю 5 7 20 км - облачно с прояснениями 766 767 -0.7 90% +3.1° более 2.5 км - - - -
00:00 +4.4° Ю 6 7 20 км - облачно 766 768 -0.6 89% +2.7° более 2.5 км - - - -
Вторник, 14 Августа
Время местн. Темп Ветер Видим Явления Облачность нижн/средн/верх Атм. давл. Влжн Точка росы ВНГО R Сост. почвы Tg s
Напр Скр Прв ур.ст ур.м изм
21:00 +6.8° Ю,Ю-В 3 5 20 км - облачно 767 768 -0.3 87% +4.8° более 2.5 км 0 - - -
18:00 +11.5° В 3 6 20 км - преимущественно облачно 767 768 -0.5 63% +4.7° более 2.5 км - - - -
15:00 +10.6° С-В 4 6 20 км - облачно с прояснениями 768 769 -0.1 70% +5.4° более 2.5 км - - - -
12:00 +4.7° З,Ю-З 2 5 20 км небо без изменений {туман} переменная облачность 768 769 -0.1 81% +1.7° более 2.5 км - - - -
09:00 +4.9° В 3 5 20 км небо без изменений {туман} переменная облачность 768 769 +0.6 81% +2° более 2.5 км 0 Влажная (без луж) -
06:00 +0.2° В,С-В 2 7 500 м туман неба не видно 767 768 +0.6 100% +0.2° - - - - -
03:00 -0.7° С-В 4 7 500 м туман неба не видно 767 768 +0.4 100% -0.7° - - - - -
00:00 -0.2° С-В 4 9 500 м туман неба не видно 766 768 +0.8 100% -0.2° - - - - -
Понедельник, 13 Августа
Время местн. Темп Ветер Видим Явления Облачность нижн/средн/верх Атм. давл. Влжн Точка росы ВНГО R Сост. почвы Tg s
Напр Скр Прв ур.ст ур.м изм
21:00 +0.2° С-В 6 10 10 км - облачно с прояснениями 765 767 +0.6 94% -0.7° 200 м 0 - - -
18:00 +1.8° С 6 11 20 км - переменная облачность 765 766 +0.6 94% +1° 300 м - - - -
15:00 +3.3° В,С-В 7 12 20 км - облачно 764 765 +0.4 93% +2.3° 300 м - - - -
12:00 +3.7° В 8 13 20 км небо без изменений {туман} преимущественно облачно 764 765 +0.8 92% +2.5° 300 м - - - -
09:00 +3.5° В 8 12 20 км небо без изменений {туман} переменная облачность 763 764 0 92% +2.4° 300 м 0 Влажная (без луж) -
06:00 +0.7° В,С-В 5 9 200 м туман неба не видно 763 764 +0.2 100% +0.7° - - - - -
03:00 -0.2° В,С-В 5 9 200 м туман неба не видно 763 764 +0.1 100% -0.2° - - - - -
00:00 -0.6° С-В 5 10 200 м туман неба не видно 763 764 +0.2 100% -0.6° - - - - -
Воскресенье, 12 Августа
Время местн. Темп Ветер Видим Явления Облачность нижн/средн/верх Атм. давл. Влжн Точка росы ВНГО R Сост. почвы Tg s
Напр Скр Прв ур.ст ур.м изм
21:00 -0.6° С-В 6 9 4 км дымка облачно 763 764 -0.2 96% -1.2° 200 м 0 - - -
18:00 +0.3° С-В 6 9 4 км дымка облачно 763 764 -0.1 96% -0.3° 200 м - - - -
15:00 +1.1° С-В 5 10 10 км - облачно 763 764 -0.3 92% 300 м - - - -
12:00 +0.6° С-В 5 9 10 км небо без изменений {туман} облачно 763 765 +0.1 94% -0.2° 200 м - - - -
09:00 -0.4° С-В 5 8 10 км небо без изменений {туман} облачно 763 764 +0.3 94% -1.3° 200 м 0 Влажная (без луж) -
06:00 -0.7° С,С-В 4 7 500 м туман неба не видно 763 764 0 100% -0.7° - - - - -